Time;durP1;ratioP1;P1;durP2;ratioP2;P2;SDS_P1;SDS_P2;PMS_P1;PMS_P2;Temp;Humidity;BMP_temperature;BMP_pressure;BME280_temperature;BME280_humidity;BME280_pressure;Samples;Min_cycle;Max_cycle;Signal;HPM_P1;HPM_P2
2023/06/23 00:01:18;;;;;;;6.70;3.65;;;26.00;81.70;;;;;;5002529;28;20069;-69
2023/06/23 00:03:45;;;;;;;6.28;3.55;;;26.10;81.50;;;;;;5015049;28;20496;-64
2023/06/23 00:06:11;;;;;;;6.80;3.50;;;26.30;81.80;;;;;;5012455;28;20046;-62
2023/06/23 00:08:40;;;;;;;7.05;4.10;;;26.00;81.60;;;;;;4999549;28;20042;-61
2023/06/23 00:11:09;;;;;;;6.28;3.60;;;25.90;81.20;;;;;;5001320;28;20103;-62
2023/06/23 00:13:35;;;;;;;5.72;3.10;;;25.90;81.70;;;;;;5014081;28;20392;-62
2023/06/23 00:16:04;;;;;;;8.93;3.88;;;25.80;81.50;;;;;;5013468;28;20076;-70
2023/06/23 00:18:33;;;;;;;7.20;3.53;;;25.90;81.80;;;;;;5011403;28;20061;-69
2023/06/23 00:20:59;;;;;;;7.57;4.10;;;25.90;81.70;;;;;;5014666;28;20046;-69
2023/06/23 00:23:25;;;;;;;6.65;3.55;;;26.00;81.50;;;;;;5003742;28;20053;-68
2023/06/23 00:25:52;;;;;;;7.22;3.22;;;25.90;81.60;;;;;;5011894;28;20575;-62
2023/06/23 00:31:58;;;;;;;5.72;3.45;;;25.80;80.70;;;;;;5004315;28;20080;-61
2023/06/23 00:34:24;;;;;;;5.70;3.40;;;25.80;81.40;;;;;;5016435;28;20500;-67
2023/06/23 00:36:50;;;;;;;9.23;3.88;;;25.80;81.50;;;;;;5015777;28;20049;-69
2023/06/23 00:39:15;;;;;;;6.20;3.15;;;25.80;81.50;;;;;;5015974;28;20096;-69
2023/06/23 00:41:41;;;;;;;6.95;3.20;;;25.90;81.60;;;;;;5012576;28;20034;-69
2023/06/23 00:44:07;;;;;;;7.55;3.58;;;25.90;81.50;;;;;;5014644;28;20101;-70
2023/06/23 00:46:33;;;;;;;7.38;3.20;;;26.00;81.70;;;;;;5015794;28;20062;-69
2023/06/23 00:49:00;;;;;;;6.35;3.47;;;26.00;81.40;;;;;;5014888;28;20038;-70
2023/06/23 00:51:26;;;;;;;6.00;3.25;;;25.90;81.70;;;;;;5016007;28;20057;-69
2023/06/23 00:53:52;;;;;;;7.22;3.28;;;25.90;81.60;;;;;;5013444;28;20048;-70
2023/06/23 00:56:21;;;;;;;5.95;3.35;;;25.80;81.40;;;;;;5011862;28;20156;-69
2023/06/23 00:58:47;;;;;;;8.43;3.42;;;25.70;81.40;;;;;;5004100;28;20042;-63
2023/06/23 01:01:13;;;;;;;5.45;3.15;;;25.80;85.20;;;;;;5004823;28;20463;-70
2023/06/23 01:03:40;;;;;;;5.50;3.50;;;25.80;81.40;;;;;;5009345;28;20049;-70
2023/06/23 01:06:27;;;;;;;5.50;3.22;;;25.50;81.30;;;;;;5014364;28;20046;-69
2023/06/23 01:09:07;;;;;;;6.30;3.28;;;25.80;80.70;;;;;;5012299;28;20042;-70
2023/06/23 01:11:42;;;;;;;6.15;3.30;;;25.70;81.90;;;;;;5013229;28;20491;-70
2023/06/23 01:14:14;;;;;;;6.88;3.40;;;25.80;81.90;;;;;;4994054;28;20056;-70
2023/06/23 01:17:03;;;;;;;6.50;3.00;;;25.80;81.70;;;;;;5005248;28;20287;-69
2023/06/23 01:19:53;;;;;;;5.90;3.00;;;25.80;80.70;;;;;;5010064;28;20131;-69
2023/06/23 01:22:35;;;;;;;6.13;3.20;;;25.80;80.50;;;;;;5007913;28;20053;-65
2023/06/23 01:25:19;;;;;;;7.10;3.85;;;25.70;80.30;;;;;;5011144;28;20488;-69
2023/06/23 01:28:01;;;;;;;6.05;3.15;;;25.80;82.00;;;;;;5009901;28;20492;-59
2023/06/23 01:30:28;;;;;;;5.30;3.20;;;25.70;80.50;;;;;;4995712;28;20101;-68
2023/06/23 01:33:06;;;;;;;8.00;3.30;;;26.00;81.80;;;;;;5004086;28;20042;-61
2023/06/23 01:35:33;;;;;;;6.60;3.30;;;25.50;81.70;;;;;;5011148;28;20049;-62
2023/06/23 01:38:19;;;;;;;7.00;3.40;;;25.70;81.60;;;;;;5013986;28;20373;-69
2023/06/23 01:40:49;;;;;;;6.70;3.28;;;25.70;81.90;;;;;;5013920;28;20049;-69
2023/06/23 01:43:14;;;;;;;6.05;3.65;;;25.80;81.70;;;;;;5013828;28;20041;-70
2023/06/23 01:45:40;;;;;;;6.18;3.22;;;25.60;81.30;;;;;;5011800;28;20073;-61
2023/06/23 01:48:07;;;;;;;6.00;3.38;;;25.70;81.30;;;;;;5012670;28;20404;-63
2023/06/23 01:50:33;;;;;;;5.82;3.08;;;25.90;81.80;;;;;;4999918;28;20100;-63
2023/06/23 01:53:00;;;;;;;5.93;3.10;;;25.70;81.40;;;;;;4993979;28;20244;-61
2023/06/23 01:55:26;;;;;;;6.03;3.10;;;25.90;81.80;;;;;;4997452;28;20042;-62
2023/06/23 01:57:52;;;;;;;5.40;3.03;;;26.00;81.60;;;;;;4996255;28;20041;-65
2023/06/23 02:00:21;;;;;;;6.28;3.28;;;25.80;81.60;;;;;;4997375;28;20050;-62
2023/06/23 02:02:47;;;;;;;12.38;3.63;;;25.70;81.60;;;;;;4995639;28;20041;-65
2023/06/23 02:05:14;;;;;;;8.00;3.28;;;25.70;81.50;;;;;;5010683;28;20038;-61
2023/06/23 02:07:41;;;;;;;7.60;3.42;;;25.90;81.80;;;;;;5008933;28;20507;-60
2023/06/23 02:10:07;;;;;;;5.40;2.92;;;25.80;81.70;;;;;;5013031;28;20134;-65
2023/06/23 02:12:38;;;;;;;5.20;2.90;;;25.70;81.10;;;;;;5008561;28;20041;-61
2023/06/23 02:15:04;;;;;;;8.20;3.25;;;25.50;81.60;;;;;;5009404;28;20427;-62
2023/06/23 02:17:30;;;;;;;6.25;3.10;;;26.00;81.10;;;;;;5013542;28;20050;-63
2023/06/23 02:19:55;;;;;;;5.45;2.92;;;25.80;81.30;;;;;;5012606;28;20064;-66
2023/06/23 02:22:23;;;;;;;5.70;3.03;;;26.00;81.50;;;;;;5010411;28;20056;-61
2023/06/23 02:24:49;;;;;;;5.28;3.05;;;25.70;81.60;;;;;;5009065;28;20451;-62
2023/06/23 02:27:14;;;;;;;7.20;3.30;;;25.80;81.30;;;;;;5009683;28;20100;-61
2023/06/23 02:29:40;;;;;;;6.05;2.72;;;25.70;81.10;;;;;;5012460;28;20050;-61
2023/06/23 02:32:07;;;;;;;7.07;3.08;;;25.70;81.30;;;;;;5010571;28;20080;-61
2023/06/23 02:34:35;;;;;;;6.30;3.17;;;25.70;81.10;;;;;;5010489;28;20092;-62
2023/06/23 02:37:04;;;;;;;5.35;3.20;;;25.70;81.30;;;;;;5012176;28;20491;-69
2023/06/23 02:39:33;;;;;;;10.50;4.13;;;25.80;81.80;;;;;;4993386;28;20042;-69
2023/06/23 02:41:59;;;;;;;4.85;2.72;;;25.50;81.30;;;;;;5003643;28;20099;-69
2023/06/23 02:44:34;;;;;;;5.80;2.63;;;25.50;81.30;;;;;;5007190;28;20048;-60
2023/06/23 02:47:00;;;;;;;6.05;2.97;;;25.70;81.80;;;;;;5001204;28;20066;-65
2023/06/23 02:49:28;;;;;;;5.85;2.92;;;25.90;81.30;;;;;;5010545;28;20045;-64
2023/06/23 02:51:57;;;;;;;6.53;3.08;;;25.90;81.60;;;;;;5012520;28;20101;-69
2023/06/23 02:54:22;;;;;;;6.07;2.85;;;25.70;81.60;;;;;;4994574;28;20057;-69
2023/06/23 02:56:48;;;;;;;6.15;2.78;;;25.60;81.30;;;;;;5010809;28;20033;-64
2023/06/23 02:59:16;;;;;;;7.18;3.25;;;25.80;81.40;;;;;;5002880;28;20480;-62
2023/06/23 03:01:42;;;;;;;6.70;3.20;;;25.40;81.40;;;;;;5011677;28;20038;-63
2023/06/23 03:04:08;;;;;;;4.97;2.90;;;25.50;81.20;;;;;;4999413;28;20077;-64
2023/06/23 03:06:36;;;;;;;8.25;3.38;;;25.70;81.40;;;;;;5012269;28;20081;-61
2023/06/23 03:09:02;;;;;;;6.15;3.05;;;25.60;80.50;;;;;;5012721;28;20443;-61
2023/06/23 03:11:29;;;;;;;5.82;3.13;;;25.60;81.20;;;;;;5012198;28;20100;-69
2023/06/23 03:13:54;;;;;;;6.72;3.35;;;25.70;81.50;;;;;;5009075;28;20100;-61
2023/06/23 03:16:23;;;;;;;8.30;3.10;;;25.80;81.50;;;;;;5008875;28;20053;-60
2023/06/23 03:18:57;;;;;;;7.75;3.00;;;25.80;81.70;;;;;;5013354;28;20103;-61
2023/06/23 03:21:23;;;;;;;5.75;3.25;;;25.50;81.70;;;;;;5011173;28;20045;-61
2023/06/23 03:23:50;;;;;;;5.82;2.85;;;25.90;81.70;;;;;;4993572;28;20564;-61
2023/06/23 03:26:15;;;;;;;6.30;2.70;;;25.60;81.50;;;;;;4994043;28;20137;-62
2023/06/23 03:28:41;;;;;;;5.47;2.70;;;25.80;81.40;;;;;;5000233;28;20078;-66
2023/06/23 03:31:08;;;;;;;6.05;2.88;;;25.60;81.40;;;;;;4994482;28;20042;-63
2023/06/23 03:33:36;;;;;;;6.85;3.00;;;25.50;81.50;;;;;;4993518;28;20054;-61
2023/06/23 03:36:08;;;;;;;6.00;2.95;;;25.70;81.80;;;;;;5008965;28;20060;-62
2023/06/23 03:38:37;;;;;;;8.68;3.00;;;25.40;81.60;;;;;;5004210;28;20043;-60
2023/06/23 03:41:06;;;;;;;7.05;2.88;;;25.70;81.90;;;;;;5003569;28;20054;-70
2023/06/23 03:43:36;;;;;;;7.00;2.85;;;25.60;81.80;;;;;;5012054;28;20057;-61
2023/06/23 03:46:04;;;;;;;6.70;3.15;;;25.60;81.80;;;;;;5009291;28;20041;-60
2023/06/23 03:48:30;;;;;;;8.88;3.03;;;25.60;81.70;;;;;;5005131;28;20050;-61
2023/06/23 03:50:56;;;;;;;5.35;2.90;;;25.60;81.60;;;;;;4989997;28;20046;-62
2023/06/23 03:53:22;;;;;;;5.88;2.90;;;25.70;81.90;;;;;;4993641;28;20042;-64
2023/06/23 03:55:49;;;;;;;6.22;2.97;;;25.40;81.40;;;;;;5008258;28;20061;-66
2023/06/23 03:58:14;;;;;;;5.82;2.75;;;25.70;81.70;;;;;;4993560;28;20045;-65
2023/06/23 04:00:40;;;;;;;8.07;3.40;;;25.60;81.40;;;;;;5008409;28;20104;-60
2023/06/23 04:03:07;;;;;;;8.40;2.85;;;25.50;85.00;;;;;;5006102;28;20381;-60
2023/06/23 04:05:33;;;;;;;6.25;2.70;;;25.60;81.90;;;;;;4998605;28;20562;-63
2023/06/23 04:08:00;;;;;;;5.35;2.75;;;25.70;81.90;;;;;;5008061;28;20468;-70
2023/06/23 04:10:25;;;;;;;6.50;2.92;;;25.70;81.80;;;;;;5009727;28;20435;-63
2023/06/23 04:12:51;;;;;;;6.55;3.33;;;25.60;81.50;;;;;;4991232;28;20038;-62
2023/06/23 04:15:18;;;;;;;5.72;3.15;;;25.50;81.50;;;;;;5011780;28;20456;-69
2023/06/23 04:17:43;;;;;;;6.28;2.90;;;25.70;81.80;;;;;;5008248;28;20084;-60
2023/06/23 04:20:10;;;;;;;5.57;2.60;;;25.50;81.60;;;;;;5006913;28;20085;-62
2023/06/23 04:22:38;;;;;;;4.60;2.70;;;25.70;81.30;;;;;;5006361;28;20513;-64
2023/06/23 04:25:04;;;;;;;6.75;3.30;;;25.80;82.00;;;;;;5009153;28;20084;-67
2023/06/23 04:27:29;;;;;;;7.10;3.03;;;25.60;81.60;;;;;;5008028;28;20057;-70
2023/06/23 04:29:55;;;;;;;8.15;3.40;;;25.70;81.70;;;;;;4995059;28;20051;-62
2023/06/23 04:32:21;;;;;;;8.32;3.13;;;25.70;81.50;;;;;;5002484;28;20042;-61
2023/06/23 04:34:47;;;;;;;5.65;2.75;;;25.80;81.90;;;;;;4991042;28;20484;-65
2023/06/23 04:37:28;;;;;;;6.07;3.10;;;25.50;81.50;;;;;;5008574;28;20395;-61
2023/06/23 04:39:58;;;;;;;6.22;3.08;;;25.70;82.30;;;;;;4984616;28;20058;-66
2023/06/23 04:42:29;;;;;;;7.47;2.90;;;25.60;85.10;;;;;;4993226;28;20042;-61
2023/06/23 04:44:56;;;;;;;6.90;3.20;;;25.50;82.00;;;;;;5021476;28;20144;-62
2023/06/23 04:47:23;;;;;;;5.57;3.00;;;25.50;81.70;;;;;;5013363;28;20052;-60
2023/06/23 04:49:59;;;;;;;6.93;3.25;;;25.40;81.10;;;;;;4998761;28;20454;-62
2023/06/23 04:52:26;;;;;;;8.00;3.10;;;25.50;82.10;;;;;;4998814;28;20054;-62
2023/06/23 04:54:52;;;;;;;6.03;2.83;;;25.80;81.80;;;;;;5001111;28;20050;-69
2023/06/23 04:57:21;;;;;;;6.88;3.10;;;25.70;82.00;;;;;;5006561;28;20069;-69
2023/06/23 04:59:52;;;;;;;7.53;2.90;;;25.50;81.80;;;;;;5014389;28;20050;-70
2023/06/23 05:02:18;;;;;;;8.48;3.13;;;25.60;80.40;;;;;;5014392;28;20085;-61
2023/06/23 05:04:44;;;;;;;7.38;3.00;;;27.70;83.10;;;;;;5014232;28;20050;-65
2023/06/23 05:07:11;;;;;;;5.32;2.88;;;25.60;81.50;;;;;;5013051;28;20045;-60
2023/06/23 05:09:37;;;;;;;6.88;2.85;;;25.90;82.20;;;;;;4999891;28;20042;-62
2023/06/23 05:12:03;;;;;;;5.15;2.78;;;25.80;81.80;;;;;;5012234;28;20379;-60
2023/06/23 05:14:29;;;;;;;7.68;3.15;;;25.90;81.50;;;;;;5007014;28;20103;-61
2023/06/23 05:16:57;;;;;;;7.43;3.30;;;25.60;81.80;;;;;;5002644;28;20113;-61
2023/06/23 05:19:23;;;;;;;6.18;2.83;;;25.80;82.10;;;;;;5007183;28;20177;-69
2023/06/23 05:21:49;;;;;;;5.75;2.85;;;25.70;81.70;;;;;;5014274;28;20660;-69
2023/06/23 05:24:15;;;;;;;6.07;3.22;;;25.70;81.50;;;;;;5004932;28;20046;-69
2023/06/23 05:26:41;;;;;;;5.95;3.00;;;25.50;81.70;;;;;;5011311;28;20108;-60
2023/06/23 05:29:08;;;;;;;5.72;2.80;;;25.60;81.70;;;;;;5012978;28;20054;-70
2023/06/23 05:31:37;;;;;;;7.13;2.85;;;25.80;82.10;;;;;;5001205;28;20078;-70
2023/06/23 05:34:02;;;;;;;6.72;3.00;;;25.90;82.20;;;;;;5010220;28;20415;-69
2023/06/23 05:36:28;;;;;;;5.88;2.85;;;25.70;82.00;;;;;;4994613;28;20038;-69
2023/06/23 05:38:54;;;;;;;6.22;3.22;;;25.70;81.80;;;;;;5011593;28;20468;-69
2023/06/23 05:41:20;;;;;;;5.15;2.97;;;25.70;84.80;;;;;;5013263;28;20121;-68
2023/06/23 05:43:46;;;;;;;6.43;3.22;;;25.80;85.30;;;;;;5012760;28;20461;-59
2023/06/23 05:46:14;;;;;;;6.00;2.95;;;25.70;81.60;;;;;;4999598;28;20172;-64
2023/06/23 05:48:51;;;;;;;5.85;2.80;;;25.70;81.90;;;;;;5010294;28;20064;-69
2023/06/23 05:51:20;;;;;;;6.80;3.08;;;25.90;80.50;;;;;;5011860;28;20569;-69
2023/06/23 05:53:46;;;;;;;4.93;2.88;;;26.00;82.00;;;;;;5005959;28;20077;-69
2023/06/23 05:56:17;;;;;;;5.50;2.45;;;25.90;81.60;;;;;;5010633;28;20076;-69
2023/06/23 05:58:47;;;;;;;6.03;3.28;;;26.00;82.00;;;;;;5013026;28;20042;-69
2023/06/23 06:01:15;;;;;;;6.15;2.78;;;25.90;81.90;;;;;;5010656;28;20057;-68
2023/06/23 06:03:46;;;;;;;6.35;2.90;;;25.90;81.80;;;;;;4995484;28;20096;-71
2023/06/23 06:06:12;;;;;;;9.32;3.53;;;26.20;82.10;;;;;;5001410;28;20391;-70
2023/06/23 06:08:38;;;;;;;11.82;4.32;;;26.20;81.40;;;;;;4994386;28;20046;-69
2023/06/23 06:11:04;;;;;;;10.95;4.07;;;26.00;81.60;;;;;;5010547;28;20038;-67
2023/06/23 06:13:34;;;;;;;10.18;4.35;;;26.20;81.50;;;;;;5010579;28;20038;-71
2023/06/23 06:16:00;;;;;;;10.35;4.40;;;26.10;82.20;;;;;;4995947;28;20045;-70
2023/06/23 06:18:26;;;;;;;9.82;4.45;;;25.50;81.50;;;;;;4992845;28;20111;-72
2023/06/23 06:20:51;;;;;;;8.18;4.13;;;25.60;81.60;;;;;;5008860;28;20044;-72
2023/06/23 06:23:17;;;;;;;7.25;3.60;;;25.80;82.10;;;;;;5017565;28;20049;-71
2023/06/23 06:25:44;;;;;;;10.73;4.10;;;25.70;82.20;;;;;;5006891;28;20052;-67
2023/06/23 06:28:11;;;;;;;9.68;4.10;;;25.50;82.30;;;;;;5011197;28;20492;-61
2023/06/23 06:30:37;;;;;;;9.40;4.07;;;25.70;82.60;;;;;;5008453;28;20050;-69
2023/06/23 06:33:02;;;;;;;8.23;4.22;;;25.80;82.60;;;;;;5010315;28;20050;-67
2023/06/23 06:35:28;;;;;;;8.25;4.07;;;25.60;82.50;;;;;;4994412;28;20400;-72
2023/06/23 06:37:54;;;;;;;9.45;4.00;;;25.50;82.70;;;;;;5009921;28;20193;-67
2023/06/23 06:40:24;;;;;;;8.52;4.10;;;25.60;82.70;;;;;;5024635;28;20188;-67
2023/06/23 06:42:50;;;;;;;8.73;4.28;;;25.40;82.90;;;;;;5007934;28;20404;-66
2023/06/23 06:45:16;;;;;;;7.45;4.05;;;25.40;82.50;;;;;;5006551;28;20049;-65
2023/06/23 06:47:43;;;;;;;11.20;3.83;;;25.40;82.40;;;;;;5013468;28;20050;-67
2023/06/23 06:50:14;;;;;;;10.88;4.35;;;25.50;82.90;;;;;;5000028;28;20061;-70
2023/06/23 06:52:40;;;;;;;9.05;4.10;;;25.40;83.30;;;;;;5003366;28;20053;-70
2023/06/23 06:55:09;;;;;;;9.77;4.55;;;25.50;83.00;;;;;;4990194;28;20046;-71
2023/06/23 06:57:35;;;;;;;12.43;4.30;;;25.50;83.10;;;;;;5006222;28;20049;-66
2023/06/23 07:00:04;;;;;;;9.05;4.72;;;25.60;83.50;;;;;;5010018;28;20074;-67
2023/06/23 07:02:31;;;;;;;10.77;4.82;;;25.80;83.40;;;;;;5012983;28;20073;-61
2023/06/23 07:04:57;;;;;;;10.07;4.85;;;25.90;83.80;;;;;;4996010;28;20376;-73
2023/06/23 07:07:23;;;;;;;9.27;4.65;;;25.80;84.00;;;;;;4993645;28;20042;-72
2023/06/23 07:09:49;;;;;;;11.93;4.68;;;26.00;83.60;;;;;;5013508;28;20048;-66
2023/06/23 07:12:15;;;;;;;7.45;4.03;;;26.40;83.80;;;;;;5007619;28;20471;-68
2023/06/23 07:14:41;;;;;;;9.95;4.28;;;26.60;83.50;;;;;;4993403;28;20551;-66
2023/06/23 07:17:06;;;;;;;10.35;4.57;;;26.20;83.20;;;;;;4994124;28;20054;-73
2023/06/23 07:19:32;;;;;;;11.20;4.22;;;26.50;83.30;;;;;;5013177;28;20034;-72
2023/06/23 07:21:58;;;;;;;7.90;4.35;;;26.30;82.90;;;;;;5012459;28;20081;-67
2023/06/23 07:24:24;;;;;;;8.55;4.40;;;26.90;83.10;;;;;;5011158;28;20033;-67
2023/06/23 07:26:50;;;;;;;10.40;4.07;;;26.80;83.00;;;;;;5011467;28;20053;-60
2023/06/23 07:29:15;;;;;;;10.85;4.53;;;26.80;82.60;;;;;;5007145;28;20073;-67
2023/06/23 07:31:41;;;;;;;6.00;3.78;;;26.90;82.50;;;;;;5001316;28;20500;-60
2023/06/23 07:34:07;;;;;;;7.40;3.95;;;27.20;82.50;;;;;;5012875;28;20081;-62
2023/06/23 07:36:33;;;;;;;9.63;4.40;;;27.10;82.30;;;;;;5013131;28;20042;-66
2023/06/23 07:38:58;;;;;;;7.07;3.75;;;27.10;82.30;;;;;;5004128;28;20484;-69
2023/06/23 07:41:24;;;;;;;7.32;3.83;;;26.90;81.90;;;;;;5008061;28;20096;-68
2023/06/23 07:43:50;;;;;;;8.27;4.03;;;27.30;82.00;;;;;;5011639;28;20050;-71
2023/06/23 07:46:16;;;;;;;9.60;3.92;;;27.10;81.70;;;;;;5005255;28;20054;-60
2023/06/23 07:48:42;;;;;;;9.05;4.20;;;27.40;81.40;;;;;;5001713;28;20061;-69
2023/06/23 07:51:07;;;;;;;6.88;3.80;;;27.40;81.50;;;;;;5010253;28;20045;-70
2023/06/23 07:53:33;;;;;;;8.32;3.92;;;27.40;81.40;;;;;;5012631;28;20042;-69
2023/06/23 07:55:59;;;;;;;6.53;3.83;;;27.30;81.20;;;;;;5012697;28;20058;-70
2023/06/23 07:58:25;;;;;;;6.90;4.03;;;27.20;81.10;;;;;;5011094;28;20040;-68
2023/06/23 08:00:53;;;;;;;9.80;4.13;;;27.10;81.00;;;;;;5012497;28;20046;-70
2023/06/23 08:03:19;;;;;;;8.02;3.70;;;27.10;81.20;;;;;;5007631;28;20106;-64
2023/06/23 08:05:45;;;;;;;7.38;4.00;;;27.30;81.10;;;;;;4993131;28;20042;-68
2023/06/23 08:08:11;;;;;;;7.47;4.05;;;27.20;80.80;;;;;;5010118;28;20049;-63
2023/06/23 08:10:36;;;;;;;8.85;4.32;;;27.30;80.90;;;;;;4993226;28;20097;-68
2023/06/23 08:13:02;;;;;;;9.27;4.32;;;27.00;80.50;;;;;;4993242;28;20054;-64
2023/06/23 08:15:28;;;;;;;9.30;4.15;;;27.10;80.50;;;;;;4993155;28;20042;-68
2023/06/23 08:17:54;;;;;;;9.68;4.00;;;27.40;80.50;;;;;;5006779;28;20550;-67
2023/06/23 08:20:20;;;;;;;6.07;3.72;;;27.30;80.40;;;;;;5007937;28;20074;-67
2023/06/23 08:22:46;;;;;;;8.68;3.60;;;27.40;80.20;;;;;;5008619;28;20165;-68
2023/06/23 08:25:13;;;;;;;7.47;3.47;;;27.20;79.80;;;;;;5012447;28;20128;-62
2023/06/23 08:27:39;;;;;;;7.57;3.92;;;27.60;79.80;;;;;;5015542;28;20046;-62
2023/06/23 08:30:06;;;;;;;8.50;4.25;;;27.50;79.50;;;;;;5014307;28;20034;-61
2023/06/23 08:32:32;;;;;;;8.18;4.10;;;27.90;79.20;;;;;;5016450;28;20439;-67
2023/06/23 08:34:59;;;;;;;8.63;4.45;;;27.90;79.20;;;;;;5016029;28;20042;-67
2023/06/23 08:37:25;;;;;;;8.57;4.05;;;27.90;79.30;;;;;;5009035;28;20089;-62
2023/06/23 08:39:51;;;;;;;8.93;3.88;;;27.70;78.90;;;;;;5000631;28;20133;-64
2023/06/23 08:42:17;;;;;;;8.50;4.00;;;27.60;78.60;;;;;;4997282;28;20038;-66
2023/06/23 08:44:43;;;;;;;12.13;3.80;;;27.40;78.10;;;;;;5010082;28;20046;-64
2023/06/23 08:47:12;;;;;;;8.75;3.97;;;27.80;78.40;;;;;;5009052;28;20060;-71
2023/06/23 08:49:39;;;;;;;8.93;3.85;;;28.00;78.40;;;;;;5008893;28;20080;-63
2023/06/23 08:52:05;;;;;;;8.18;4.13;;;28.20;78.40;;;;;;5015245;28;20048;-64
2023/06/23 08:54:31;;;;;;;11.45;4.90;;;28.30;77.70;;;;;;5009146;28;20050;-63
2023/06/23 08:56:57;;;;;;;6.85;3.80;;;27.90;77.60;;;;;;5013818;28;20042;-60
2023/06/23 08:59:23;;;;;;;8.00;4.70;;;28.00;77.70;;;;;;5014799;28;20046;-60
2023/06/23 09:01:50;;;;;;;7.88;4.10;;;28.10;77.50;;;;;;5013853;28;20046;-64
2023/06/23 09:04:16;;;;;;;7.50;4.32;;;28.30;77.70;;;;;;4997600;28;20108;-62
2023/06/23 09:06:42;;;;;;;6.65;4.07;;;28.40;77.50;;;;;;5003755;28;20046;-61
2023/06/23 09:09:07;;;;;;;9.27;4.35;;;28.50;77.60;;;;;;5008181;28;20532;-63
2023/06/23 09:11:33;;;;;;;9.40;5.10;;;28.30;77.40;;;;;;5010051;28;20458;-61
2023/06/23 09:14:00;;;;;;;9.05;4.90;;;28.00;77.20;;;;;;5012980;28;20128;-64
2023/06/23 09:16:27;;;;;;;9.02;5.00;;;28.00;77.30;;;;;;5014147;28;20049;-63
2023/06/23 09:18:52;;;;;;;10.80;5.13;;;28.00;77.20;;;;;;5015492;28;20056;-63
2023/06/23 09:21:19;;;;;;;8.18;4.70;;;28.00;77.20;;;;;;5012011;28;20492;-70
2023/06/23 09:24:03;;;;;;;8.90;4.50;;;28.40;77.30;;;;;;5013118;28;20049;-68
2023/06/23 09:26:30;;;;;;;12.65;4.32;;;28.40;77.70;;;;;;5015397;28;20110;-65
2023/06/23 09:29:26;;;;;;;11.55;4.60;;;28.00;77.30;;;;;;5006500;28;20042;-65
2023/06/23 09:31:52;;;;;;;15.18;4.90;;;28.00;77.50;;;;;;5009472;28;20051;-69
2023/06/23 09:34:33;;;;;;;13.65;4.93;;;28.10;77.40;;;;;;5003742;28;20509;-68
2023/06/23 09:37:10;;;;;;;9.27;4.35;;;28.10;77.90;;;;;;4995334;28;20054;-65
2023/06/23 09:39:48;;;;;;;10.40;4.57;;;28.30;78.00;;;;;;4995603;28;20060;-69
2023/06/23 09:42:15;;;;;;;12.60;4.25;;;27.90;77.80;;;;;;5001427;28;20052;-69
2023/06/23 09:44:45;;;;;;;8.00;4.18;;;28.10;77.10;;;;;;5003997;28;20050;-68
2023/06/23 09:47:15;;;;;;;8.73;4.57;;;28.30;77.80;;;;;;5002309;28;20084;-65
2023/06/23 09:49:42;;;;;;;9.40;4.53;;;28.00;76.20;;;;;;5013217;28;20124;-61
2023/06/23 09:52:13;;;;;;;10.45;4.28;;;28.30;77.80;;;;;;5014595;28;20085;-68
2023/06/23 09:54:40;;;;;;;9.43;4.28;;;28.10;76.20;;;;;;5014911;28;20057;-66
2023/06/23 09:57:12;;;;;;;9.25;4.15;;;28.10;77.60;;;;;;5013358;28;20395;-67
2023/06/23 09:59:39;;;;;;;6.47;4.25;;;28.10;77.60;;;;;;5000058;28;20050;-65
2023/06/23 10:02:06;;;;;;;9.02;4.10;;;28.10;77.20;;;;;;4995718;28;20069;-63
2023/06/23 10:04:32;;;;;;;6.57;4.18;;;28.20;77.50;;;;;;5009820;28;20646;-63
2023/06/23 10:06:58;;;;;;;7.25;3.92;;;28.20;77.10;;;;;;4998269;28;20070;-60
2023/06/23 10:09:24;;;;;;;8.02;4.55;;;28.10;77.00;;;;;;5007388;28;20504;-64
2023/06/23 10:11:50;;;;;;;9.00;4.18;;;28.00;77.00;;;;;;4994987;28;20049;-60
2023/06/23 10:14:16;;;;;;;8.70;3.72;;;27.90;76.90;;;;;;4994865;28;20512;-59
2023/06/23 10:16:45;;;;;;;6.38;3.83;;;27.90;76.70;;;;;;5011126;28;20117;-61
2023/06/23 10:19:11;;;;;;;7.78;4.13;;;27.90;76.80;;;;;;5002511;28;20048;-61
2023/06/23 10:21:37;;;;;;;6.60;4.32;;;27.90;76.70;;;;;;5014323;28;20376;-64
2023/06/23 10:24:05;;;;;;;9.52;4.30;;;28.10;77.00;;;;;;5013915;28;20053;-66
2023/06/23 10:26:34;;;;;;;7.32;3.90;;;28.10;76.80;;;;;;5013060;28;20562;-69
2023/06/23 10:29:09;;;;;;;8.00;3.97;;;28.10;76.30;;;;;;5004539;28;20054;-65
2023/06/23 10:31:34;;;;;;;8.10;4.15;;;28.00;75.30;;;;;;5003546;28;20124;-64
2023/06/23 10:34:01;;;;;;;5.80;3.80;;;28.20;76.50;;;;;;5012586;28;20184;-59
2023/06/23 10:36:28;;;;;;;6.45;3.92;;;28.50;77.00;;;;;;5008009;28;20064;-60
2023/06/23 10:38:53;;;;;;;6.88;3.85;;;28.20;76.70;;;;;;4996449;28;20053;-67
2023/06/23 10:41:20;;;;;;;7.15;3.92;;;28.20;76.40;;;;;;5008508;28;20042;-66
2023/06/23 10:43:50;;;;;;;6.85;4.10;;;28.10;76.50;;;;;;4993114;28;20059;-67
2023/06/23 10:46:16;;;;;;;7.00;3.90;;;28.50;77.10;;;;;;4999102;28;20069;-66
2023/06/23 10:48:42;;;;;;;9.93;3.97;;;28.50;76.20;;;;;;4996951;28;20488;-66
2023/06/23 10:51:08;;;;;;;6.82;3.70;;;28.50;76.70;;;;;;5012369;28;20133;-67
2023/06/23 10:53:37;;;;;;;7.25;3.88;;;28.10;76.30;;;;;;5005928;28;20136;-67
2023/06/23 10:56:02;;;;;;;11.10;3.75;;;28.40;76.60;;;;;;4992792;28;20050;-68
2023/06/23 10:58:29;;;;;;;6.95;3.45;;;28.20;76.30;;;;;;4993746;28;20051;-71
2023/06/23 11:00:54;;;;;;;9.75;3.72;;;28.10;76.40;;;;;;4994078;28;20478;-70
2023/06/23 11:03:38;;;;;;;8.50;3.83;;;28.30;76.30;;;;;;4993547;28;20081;-68
2023/06/23 11:06:06;;;;;;;7.03;3.50;;;28.30;75.40;;;;;;4996967;28;20053;-69
2023/06/23 11:08:36;;;;;;;8.70;3.90;;;28.40;76.80;;;;;;5011961;28;20085;-65
2023/06/23 11:11:04;;;;;;;6.75;3.35;;;28.20;76.80;;;;;;5002644;28;20420;-69
2023/06/23 11:13:42;;;;;;;6.00;3.63;;;28.20;76.50;;;;;;4994060;28;20054;-65
2023/06/23 11:16:49;;;;;;;6.57;3.53;;;28.30;75.30;;;;;;5022520;28;20058;-71
2023/06/23 11:19:26;;;;;;;5.97;3.88;;;28.40;76.90;;;;;;5009759;28;20104;-71
2023/06/23 11:21:52;;;;;;;6.03;3.42;;;28.40;75.30;;;;;;4995494;28;20052;-64
2023/06/23 11:24:19;;;;;;;6.88;3.42;;;28.20;76.20;;;;;;4984031;28;20055;-66
2023/06/23 11:26:52;;;;;;;6.22;3.63;;;28.40;76.60;;;;;;4981279;28;20466;-60
2023/06/23 11:29:21;;;;;;;6.35;3.65;;;28.20;76.90;;;;;;4977473;28;20050;-61
2023/06/23 11:32:08;;;;;;;7.75;3.40;;;28.10;76.80;;;;;;4971681;28;20213;-59
2023/06/23 11:34:54;;;;;;;5.82;3.85;;;28.30;75.60;;;;;;4972978;28;20043;-63
2023/06/23 11:37:21;;;;;;;6.43;3.70;;;28.30;77.30;;;;;;4982247;28;20092;-65
2023/06/23 11:39:47;;;;;;;4.93;3.20;;;28.10;76.90;;;;;;5005908;28;20492;-69
2023/06/23 11:42:13;;;;;;;5.80;3.70;;;28.20;76.80;;;;;;5007897;28;20042;-66
2023/06/23 11:44:39;;;;;;;5.95;3.63;;;28.40;76.50;;;;;;4992901;28;20637;-61
2023/06/23 11:47:05;;;;;;;6.90;3.75;;;28.30;76.60;;;;;;5002436;28;20058;-62
2023/06/23 11:49:30;;;;;;;5.20;3.33;;;28.30;76.20;;;;;;4992544;28;20129;-64
2023/06/23 11:52:03;;;;;;;5.10;3.30;;;28.20;76.60;;;;;;5009273;28;20132;-69
2023/06/23 11:54:32;;;;;;;6.03;3.78;;;28.40;77.10;;;;;;5014400;28;20050;-69
2023/06/23 11:57:07;;;;;;;6.65;3.75;;;25.90;75.40;;;;;;5016142;28;20041;-61
2023/06/23 11:59:36;;;;;;;11.02;4.18;;;28.40;77.20;;;;;;5018349;28;20097;-69
2023/06/23 12:02:02;;;;;;;6.75;3.60;;;28.20;77.10;;;;;;5008108;28;20053;-68
2023/06/23 12:04:29;;;;;;;9.13;3.60;;;28.30;76.90;;;;;;4999735;28;20053;-69
2023/06/23 12:06:55;;;;;;;6.22;3.78;;;28.20;77.20;;;;;;5014008;28;20111;-65
2023/06/23 12:09:21;;;;;;;10.50;4.05;;;28.10;77.20;;;;;;5015835;28;20116;-65
2023/06/23 12:11:47;;;;;;;7.75;4.05;;;28.40;77.20;;;;;;5010867;28;20523;-69
2023/06/23 12:14:13;;;;;;;7.28;4.10;;;28.50;77.30;;;;;;4998252;28;20105;-64
2023/06/23 12:16:39;;;;;;;7.43;4.30;;;28.50;77.30;;;;;;5009883;28;20056;-60
2023/06/23 12:19:05;;;;;;;6.78;4.05;;;28.30;77.20;;;;;;5017472;28;20053;-64
2023/06/23 12:21:32;;;;;;;5.68;4.00;;;28.30;77.20;;;;;;5017754;28;20053;-64
2023/06/23 12:23:58;;;;;;;6.63;3.90;;;28.10;77.50;;;;;;5018959;28;20054;-68
2023/06/23 12:26:24;;;;;;;7.45;4.10;;;28.30;77.50;;;;;;5016552;28;20696;-65
2023/06/23 12:28:50;;;;;;;5.95;4.22;;;28.30;77.50;;;;;;5019170;28;20049;-66
2023/06/23 12:31:26;;;;;;;6.57;3.75;;;28.20;77.60;;;;;;5019152;28;20073;-71
2023/06/23 12:33:52;;;;;;;7.90;4.10;;;28.20;78.10;;;;;;5018828;28;20098;-69
2023/06/23 12:36:18;;;;;;;5.90;3.75;;;28.20;77.00;;;;;;5005474;28;20125;-69
2023/06/23 12:38:50;;;;;;;8.50;4.20;;;28.30;77.50;;;;;;5016713;28;20584;-70
2023/06/23 12:41:20;;;;;;;6.70;4.10;;;28.10;77.80;;;;;;5016317;28;20107;-65
2023/06/23 12:43:47;;;;;;;8.02;4.50;;;28.40;78.00;;;;;;5019069;28;20121;-68
2023/06/23 12:46:15;;;;;;;5.85;4.07;;;28.10;77.80;;;;;;5018539;28;20101;-68
2023/06/23 12:48:44;;;;;;;6.43;4.20;;;28.40;77.80;;;;;;5016435;28;20108;-69
2023/06/23 12:51:10;;;;;;;6.18;4.30;;;28.40;78.20;;;;;;5015828;28;20124;-69
2023/06/23 12:53:36;;;;;;;6.38;4.18;;;28.40;77.90;;;;;;5014663;28;20392;-70